createdAt,value
2022-10-23T00:01:51.442Z,10.55
2022-10-23T00:04:22.195Z,11.20
2022-10-23T00:06:51.489Z,11.48
2022-10-23T00:09:24.203Z,10.93
2022-10-23T00:11:54.264Z,10.27
2022-10-23T00:14:26.246Z,10.95
2022-10-23T00:16:55.972Z,11.40
2022-10-23T00:19:26.030Z,11.32
2022-10-23T00:24:24.528Z,11.50
2022-10-23T00:26:53.136Z,11.38
2022-10-23T00:29:22.895Z,11.48
2022-10-23T00:31:51.542Z,13.18
2022-10-23T00:34:20.221Z,10.35
2022-10-23T00:36:48.856Z,11.67
2022-10-23T00:39:17.524Z,10.95
2022-10-23T00:41:50.787Z,10.52
2022-10-23T00:44:58.880Z,10.88
2022-10-23T00:47:28.075Z,11.33
2022-10-23T00:49:56.909Z,10.30
2022-10-23T00:52:25.467Z,11.20
2022-10-23T00:54:54.156Z,11.85
2022-10-23T00:57:24.254Z,10.95
2022-10-23T00:59:53.871Z,10.77
2022-10-23T01:02:22.608Z,11.93
2022-10-23T01:04:51.887Z,12.48
2022-10-23T01:07:28.926Z,10.77
2022-10-23T01:10:04.870Z,10.75
2022-10-23T01:12:41.741Z,9.68
2022-10-23T01:15:18.003Z,9.70
2022-10-23T01:17:51.843Z,9.88
2022-10-23T01:20:32.337Z,12.00
2022-10-23T01:23:39.921Z,10.57
2022-10-23T01:26:31.153Z,10.93
2022-10-23T01:29:08.443Z,11.00
2022-10-23T01:31:41.179Z,11.90
2022-10-23T01:34:13.738Z,11.55
2022-10-23T01:36:50.142Z,11.55
2022-10-23T01:39:25.279Z,12.80
2022-10-23T01:41:57.223Z,11.85
2022-10-23T01:44:36.107Z,12.88
2022-10-23T01:47:07.438Z,11.35
2022-10-23T01:49:47.939Z,10.93
2022-10-23T01:52:19.009Z,13.82
2022-10-23T01:54:52.958Z,12.00
2022-10-23T01:57:23.782Z,12.80
2022-10-23T02:00:02.917Z,11.65
2022-10-23T02:05:07.971Z,11.38
2022-10-23T02:07:37.593Z,11.90
2022-10-23T02:10:07.835Z,13.50
2022-10-23T02:12:50.159Z,12.27
2022-10-23T02:15:28.228Z,11.68
2022-10-23T02:18:05.100Z,13.70
2022-10-23T02:20:40.784Z,12.57
2022-10-23T02:23:18.988Z,12.65
2022-10-23T02:25:52.975Z,11.02
2022-10-23T02:28:27.718Z,13.25
2022-10-23T02:31:03.215Z,14.27
2022-10-23T02:33:34.883Z,12.55
2022-10-23T02:36:03.937Z,12.65
2022-10-23T02:38:35.647Z,11.98
2022-10-23T02:41:24.758Z,14.48
2022-10-23T02:44:04.871Z,14.73
2022-10-23T02:46:46.772Z,14.00
2022-10-23T02:49:20.025Z,12.80
2022-10-23T02:52:00.202Z,13.85
2022-10-23T02:54:43.067Z,14.05
2022-10-23T02:57:21.058Z,14.95
2022-10-23T02:59:58.994Z,13.40
2022-10-23T03:02:37.161Z,13.63
2022-10-23T03:05:12.657Z,12.50
2022-10-23T03:07:42.540Z,13.27
2022-10-23T03:10:12.693Z,12.52
2022-10-23T03:12:41.708Z,10.60
2022-10-23T03:15:12.816Z,11.15
2022-10-23T03:17:43.429Z,11.98
2022-10-23T03:20:12.989Z,13.05
2022-10-23T03:25:11.027Z,10.40
2022-10-23T03:27:39.938Z,11.18
2022-10-23T03:30:12.517Z,9.85
2022-10-23T03:32:44.185Z,9.98
2022-10-23T03:35:15.316Z,9.90
2022-10-23T03:37:44.159Z,11.15
2022-10-23T03:40:14.045Z,9.30
2022-10-23T03:42:42.755Z,9.73
2022-10-23T03:45:14.884Z,9.13
2022-10-23T03:47:45.560Z,12.00
2022-10-23T03:50:15.517Z,11.27
2022-10-23T03:52:44.543Z,11.05
2022-10-23T03:55:14.915Z,10.60
2022-10-23T03:57:43.672Z,11.65
2022-10-23T04:00:13.263Z,10.45
2022-10-23T04:02:50.965Z,10.93
2022-10-23T04:05:19.917Z,11.10
2022-10-23T04:07:56.032Z,10.02
2022-10-23T04:10:25.222Z,11.75
2022-10-23T04:12:53.808Z,10.23
2022-10-23T04:15:22.513Z,12.93
2022-10-23T04:17:52.557Z,11.70
2022-10-23T04:20:21.685Z,12.15
2022-10-23T04:22:50.339Z,12.73
2022-10-23T04:25:19.191Z,11.98
2022-10-23T04:27:47.845Z,14.07
2022-10-23T04:30:16.531Z,13.90
2022-10-23T04:32:47.499Z,13.02
2022-10-23T04:35:18.891Z,11.65
2022-10-23T04:37:48.261Z,12.07
2022-10-23T04:40:16.993Z,11.83
2022-10-23T04:42:45.822Z,10.30
2022-10-23T04:45:15.433Z,12.30
2022-10-23T04:47:44.346Z,12.50
2022-10-23T04:50:13.172Z,12.07
2022-10-23T04:53:02.046Z,12.73
2022-10-23T04:55:36.373Z,14.82
2022-10-23T04:58:18.303Z,15.45
2022-10-23T05:00:47.170Z,15.40
2022-10-23T05:03:23.449Z,14.15
2022-10-23T05:08:46.773Z,13.25
2022-10-23T05:11:18.744Z,12.40
2022-10-23T05:13:50.233Z,12.20
2022-10-23T05:16:30.054Z,14.00
2022-10-23T05:18:59.991Z,12.75
2022-10-23T05:21:31.325Z,14.88
2022-10-23T05:24:02.827Z,13.45
2022-10-23T05:26:33.292Z,14.82
2022-10-23T05:29:07.605Z,13.02
2022-10-23T05:31:37.827Z,13.47
2022-10-23T05:34:14.405Z,12.48
2022-10-23T05:36:46.540Z,13.60
2022-10-23T05:39:18.189Z,13.07
2022-10-23T05:41:48.031Z,14.68
2022-10-23T05:44:22.260Z,12.80
2022-10-23T05:47:29.626Z,13.70
2022-10-23T05:50:19.143Z,15.05
2022-10-23T05:53:01.112Z,13.32
2022-10-23T05:55:49.760Z,13.90
2022-10-23T05:58:37.080Z,12.20
2022-10-23T06:01:29.474Z,17.13
2022-10-23T06:04:06.338Z,17.95
2022-10-23T06:06:57.369Z,18.33
2022-10-23T06:09:26.987Z,17.88
2022-10-23T06:12:02.945Z,16.75
2022-10-23T06:14:33.854Z,17.77
2022-10-23T06:17:02.505Z,20.63
2022-10-23T06:19:31.320Z,19.60
2022-10-23T06:22:00.023Z,22.88
2022-10-23T06:24:44.919Z,18.63
2022-10-23T06:27:16.919Z,17.23
2022-10-23T06:29:47.780Z,17.65
2022-10-23T06:32:16.712Z,17.42
2022-10-23T06:34:53.438Z,17.10
2022-10-23T06:37:22.093Z,16.17
2022-10-23T06:40:07.985Z,14.82
2022-10-23T06:43:01.825Z,17.15
2022-10-23T06:45:35.053Z,15.18
2022-10-23T06:48:16.477Z,18.55
2022-10-23T06:51:17.972Z,18.83
2022-10-23T06:53:47.267Z,21.25
2022-10-23T06:56:39.666Z,18.88
2022-10-23T06:59:12.032Z,20.38
2022-10-23T07:01:41.252Z,20.90
2022-10-23T07:04:13.723Z,17.27
2022-10-23T07:06:43.313Z,16.65
2022-10-23T07:09:12.444Z,21.30
2022-10-23T07:11:53.391Z,18.98
2022-10-23T07:14:32.328Z,19.23
2022-10-23T07:17:03.266Z,15.85
2022-10-23T07:19:32.008Z,14.70
2022-10-23T07:22:05.745Z,13.32
2022-10-23T07:24:44.347Z,12.57
2022-10-23T07:27:21.645Z,14.43
2022-10-23T07:29:58.265Z,12.82
2022-10-23T07:32:31.379Z,9.75
2022-10-23T07:35:19.053Z,12.27
2022-10-23T07:37:56.028Z,10.07
2022-10-23T07:40:25.931Z,7.60
2022-10-23T07:42:58.279Z,6.57
2022-10-23T07:45:29.344Z,5.13
2022-10-23T07:47:59.254Z,5.07
2022-10-23T07:50:39.557Z,4.80
2022-10-23T07:53:10.872Z,3.85
2022-10-23T07:55:54.818Z,4.05
2022-10-23T07:58:24.764Z,3.42
2022-10-23T08:01:18.671Z,3.17
2022-10-23T08:03:49.711Z,2.45
2022-10-23T08:06:19.826Z,2.55
2022-10-23T08:08:52.928Z,2.60
2022-10-23T08:11:28.194Z,2.40
2022-10-23T08:14:02.895Z,3.05
2022-10-23T08:16:34.466Z,2.00
2022-10-23T08:19:06.464Z,2.53
2022-10-23T08:21:37.563Z,2.90
2022-10-23T08:24:13.775Z,2.20
2022-10-23T08:29:17.876Z,1.90
2022-10-23T08:31:50.505Z,1.67
2022-10-23T08:34:38.069Z,2.00
2022-10-23T08:37:09.419Z,1.55
2022-10-23T08:39:40.708Z,1.45
2022-10-23T08:44:56.588Z,1.80
2022-10-23T08:47:32.255Z,1.50
2022-10-23T08:53:03.215Z,1.60
2022-10-23T08:55:32.895Z,1.40
2022-10-23T08:58:04.152Z,1.58
2022-10-23T09:00:35.176Z,1.65
2022-10-23T09:03:09.070Z,1.30
2022-10-23T09:05:48.897Z,1.67
2022-10-23T09:08:26.244Z,1.50
2022-10-23T09:11:06.305Z,1.70
2022-10-23T09:13:45.550Z,1.50
2022-10-23T09:16:20.075Z,1.60
2022-10-23T09:18:52.867Z,1.60
2022-10-23T09:21:24.683Z,1.67
2022-10-23T09:23:56.150Z,1.90
2022-10-23T09:26:27.888Z,1.75
2022-10-23T09:29:05.428Z,1.90
2022-10-23T09:31:36.267Z,2.20
2022-10-23T09:34:11.799Z,2.30
2022-10-23T09:36:53.718Z,2.97
2022-10-23T09:39:30.505Z,3.25
2022-10-23T09:42:02.631Z,2.47
2022-10-23T09:44:35.256Z,2.85
2022-10-23T09:47:13.424Z,2.25
2022-10-23T09:49:50.208Z,2.65
2022-10-23T09:52:25.831Z,2.30
2022-10-23T09:54:58.831Z,1.85
2022-10-23T09:57:33.269Z,1.90
2022-10-23T10:00:05.855Z,2.10
2022-10-23T10:02:43.160Z,2.10
2022-10-23T10:05:38.346Z,2.13
2022-10-23T10:08:19.249Z,1.92
2022-10-23T10:10:55.829Z,1.98
2022-10-23T10:13:37.426Z,2.50
2022-10-23T10:16:11.076Z,2.38
2022-10-23T10:18:44.023Z,2.10
2022-10-23T10:21:18.784Z,2.13
2022-10-23T10:23:51.706Z,2.70
2022-10-23T10:26:36.136Z,2.42
2022-10-23T10:29:18.346Z,2.75
2022-10-23T10:31:53.355Z,3.22
2022-10-23T10:34:28.099Z,2.47
2022-10-23T10:37:00.066Z,3.53
2022-10-23T10:39:39.859Z,2.78
2022-10-23T10:42:17.089Z,3.10
2022-10-23T10:45:21.427Z,2.90
2022-10-23T10:48:22.493Z,2.60
2022-10-23T10:51:30.114Z,2.72
2022-10-23T10:54:17.468Z,2.95
2022-10-23T10:56:48.734Z,3.58
2022-10-23T10:59:22.164Z,3.10
2022-10-23T11:01:55.612Z,3.10
2022-10-23T11:04:35.468Z,2.97
2022-10-23T11:07:14.146Z,2.90
2022-10-23T11:09:47.655Z,3.25
2022-10-23T11:12:23.152Z,2.80
2022-10-23T11:14:52.770Z,2.55
2022-10-23T11:17:27.155Z,3.10
2022-10-23T11:20:01.020Z,2.58
2022-10-23T11:22:34.931Z,2.90
2022-10-23T11:25:25.595Z,2.45
2022-10-23T11:28:03.629Z,3.03
2022-10-23T11:30:40.347Z,2.35
2022-10-23T11:33:41.418Z,2.85
2022-10-23T11:36:21.431Z,2.10
2022-10-23T11:38:53.969Z,2.20
2022-10-23T11:41:27.029Z,1.88
2022-10-23T11:44:01.839Z,2.20
2022-10-23T11:46:36.372Z,2.10
2022-10-23T11:49:07.818Z,2.10
2022-10-23T11:51:38.442Z,2.35
2022-10-23T11:54:08.736Z,1.95
2022-10-23T11:56:39.489Z,2.30
2022-10-23T11:59:23.504Z,2.88
2022-10-23T12:01:55.094Z,2.05
2022-10-23T12:04:27.820Z,2.08
2022-10-23T12:07:00.923Z,1.98
2022-10-23T12:09:36.252Z,2.00
2022-10-23T12:12:29.618Z,2.30
2022-10-23T12:15:21.648Z,2.30
2022-10-23T12:17:52.506Z,2.10
2022-10-23T12:20:38.020Z,2.05
2022-10-23T12:23:48.386Z,1.83
2022-10-23T12:26:35.895Z,1.98
2022-10-23T12:29:16.784Z,1.80
2022-10-23T12:31:53.570Z,1.80
2022-10-23T12:34:37.618Z,1.80
2022-10-23T12:37:20.046Z,2.15
2022-10-23T12:39:54.464Z,1.85
2022-10-23T12:42:26.050Z,2.00
2022-10-23T12:45:05.943Z,2.08
2022-10-23T12:47:34.791Z,1.85
2022-10-23T12:50:03.469Z,2.35
2022-10-23T12:52:35.390Z,2.05
2022-10-23T12:55:14.801Z,1.92
2022-10-23T12:57:46.295Z,2.17
2022-10-23T13:00:20.581Z,2.20
2022-10-23T13:02:59.315Z,2.20
2022-10-23T13:05:29.429Z,1.83
2022-10-23T13:07:59.894Z,2.25
2022-10-23T13:10:44.154Z,2.33
2022-10-23T13:13:15.276Z,2.65
2022-10-23T13:15:46.732Z,2.63
2022-10-23T13:18:16.763Z,2.53
2022-10-23T13:20:57.140Z,2.75
2022-10-23T13:23:31.348Z,3.33
2022-10-23T13:26:02.139Z,2.83
2022-10-23T13:28:32.619Z,3.15
2022-10-23T13:31:25.448Z,2.90
2022-10-23T13:34:07.030Z,2.70
2022-10-23T13:36:39.656Z,3.38
2022-10-23T13:39:16.564Z,3.15
2022-10-23T13:41:47.999Z,3.15
2022-10-23T13:44:20.661Z,3.22
2022-10-23T13:46:53.731Z,3.85
2022-10-23T13:49:22.413Z,3.50
2022-10-23T13:54:24.028Z,3.75
2022-10-23T13:56:55.785Z,3.45
2022-10-23T13:59:25.288Z,3.72
2022-10-23T14:04:28.154Z,3.28
2022-10-23T14:06:59.034Z,3.88
2022-10-23T14:09:27.731Z,3.90
2022-10-23T14:11:57.476Z,3.50
2022-10-23T14:14:26.105Z,3.28
2022-10-23T14:16:58.077Z,3.25
2022-10-23T14:19:26.812Z,3.50
2022-10-23T14:21:55.725Z,3.20
2022-10-23T14:24:24.476Z,3.28
2022-10-23T14:26:57.664Z,3.55
2022-10-23T14:29:26.485Z,3.47
2022-10-23T14:31:58.998Z,3.20
2022-10-23T14:34:27.678Z,3.25
2022-10-23T14:37:07.999Z,3.33
2022-10-23T14:39:37.941Z,3.67
2022-10-23T14:42:06.752Z,3.85
2022-10-23T14:44:35.424Z,3.35
2022-10-23T14:47:05.660Z,3.67
2022-10-23T14:49:36.878Z,3.50
2022-10-23T14:52:07.942Z,4.10
2022-10-23T14:54:38.772Z,3.25
2022-10-23T14:57:07.449Z,3.65
2022-10-23T14:59:36.236Z,3.53
2022-10-23T15:02:07.719Z,3.60
2022-10-23T15:04:36.548Z,3.40
2022-10-23T15:07:05.128Z,3.65
2022-10-23T15:09:36.413Z,3.95
2022-10-23T15:12:05.761Z,3.72
2022-10-23T15:14:34.458Z,3.30
2022-10-23T15:17:04.351Z,3.00
2022-10-23T15:19:34.375Z,3.70
2022-10-23T15:22:03.156Z,4.05
2022-10-23T15:24:31.862Z,3.95
2022-10-23T15:27:02.155Z,3.83
2022-10-23T15:29:31.380Z,3.83
2022-10-23T15:32:00.571Z,3.35
2022-10-23T15:34:30.884Z,3.40
2022-10-23T15:37:01.498Z,3.65
2022-10-23T15:39:33.988Z,3.85
2022-10-23T15:42:03.696Z,3.28
2022-10-23T15:44:33.969Z,3.72
2022-10-23T15:47:02.839Z,3.85
2022-10-23T15:49:31.671Z,3.33
2022-10-23T15:52:02.443Z,4.55
2022-10-23T15:54:32.875Z,3.67
2022-10-23T15:57:02.683Z,2.88
2022-10-23T15:59:32.866Z,2.80
2022-10-23T16:02:01.685Z,2.80
2022-10-23T16:04:31.017Z,2.78
2022-10-23T16:07:01.084Z,4.07
2022-10-23T16:09:30.468Z,2.97
2022-10-23T16:11:59.162Z,2.65
2022-10-23T16:14:27.741Z,3.43
2022-10-23T16:16:56.420Z,3.10
2022-10-23T16:19:25.491Z,3.15
2022-10-23T16:21:54.228Z,3.20
2022-10-23T16:24:24.266Z,3.10
2022-10-23T16:26:53.509Z,3.20
2022-10-23T16:29:23.795Z,3.47
2022-10-23T16:31:52.622Z,3.40
2022-10-23T16:34:21.853Z,3.17
2022-10-23T16:36:50.843Z,3.13
2022-10-23T16:39:32.693Z,3.25
2022-10-23T16:42:20.249Z,3.25
2022-10-23T16:45:04.331Z,3.65
2022-10-23T16:47:34.100Z,3.40
2022-10-23T16:50:02.686Z,4.10
2022-10-23T16:52:31.485Z,3.87
2022-10-23T16:55:01.853Z,6.20
2022-10-23T16:57:30.905Z,3.92
2022-10-23T16:59:59.541Z,4.45
2022-10-23T17:02:28.364Z,3.87
2022-10-23T17:04:57.144Z,5.90
2022-10-23T17:07:26.701Z,3.20
2022-10-23T17:12:25.097Z,3.88
2022-10-23T17:14:53.805Z,3.75
2022-10-23T17:17:22.395Z,4.60
2022-10-23T17:19:51.002Z,4.70
2022-10-23T17:22:19.580Z,4.03
2022-10-23T17:24:51.437Z,3.97
2022-10-23T17:27:26.544Z,5.78
2022-10-23T17:29:55.301Z,4.57
2022-10-23T17:32:26.089Z,5.67
2022-10-23T17:34:54.869Z,4.82
2022-10-23T17:37:23.513Z,4.35
2022-10-23T17:39:52.210Z,4.40
2022-10-23T17:42:20.834Z,4.73
2022-10-23T17:44:50.838Z,4.30
2022-10-23T17:47:19.490Z,4.15
2022-10-23T17:49:48.099Z,3.70
2022-10-23T17:52:16.869Z,4.13
2022-10-23T17:54:45.496Z,3.75
2022-10-23T17:57:14.604Z,3.77
2022-10-23T17:59:43.211Z,3.85
2022-10-23T18:02:14.601Z,4.83
2022-10-23T18:04:43.381Z,4.10
2022-10-23T18:07:13.179Z,3.70
2022-10-23T18:09:41.780Z,4.63
2022-10-23T18:12:10.453Z,4.13
2022-10-23T18:14:39.205Z,3.53
2022-10-23T18:17:07.883Z,4.00
2022-10-23T18:19:37.955Z,3.60
2022-10-23T18:22:06.684Z,4.75
2022-10-23T18:24:36.137Z,4.00
2022-10-23T18:27:05.122Z,4.60
2022-10-23T18:29:33.876Z,4.03
2022-10-23T18:32:02.503Z,5.78
2022-10-23T18:34:31.267Z,4.40
2022-10-23T18:37:01.983Z,4.55
2022-10-23T18:39:30.769Z,3.40
2022-10-23T18:42:00.284Z,3.70
2022-10-23T18:44:29.701Z,3.97
2022-10-23T18:47:00.052Z,4.05
2022-10-23T18:49:29.686Z,3.92
2022-10-23T18:54:28.587Z,4.00
2022-10-23T18:56:57.404Z,4.50
2022-10-23T18:59:26.106Z,4.17
2022-10-23T19:01:54.901Z,4.47
2022-10-23T19:04:23.605Z,3.95
2022-10-23T19:06:52.480Z,4.10
2022-10-23T19:09:21.747Z,4.07
2022-10-23T19:11:51.876Z,3.97
2022-10-23T19:14:20.487Z,4.25
2022-10-23T19:16:59.404Z,4.47
2022-10-23T19:19:31.757Z,3.95
2022-10-23T19:22:03.502Z,4.13
2022-10-23T19:24:38.205Z,4.30
2022-10-23T19:27:08.708Z,3.38
2022-10-23T19:29:39.740Z,3.70
2022-10-23T19:32:09.076Z,3.83
2022-10-23T19:34:38.033Z,3.90
2022-10-23T19:37:07.040Z,4.15
2022-10-23T19:39:35.645Z,3.10
2022-10-23T19:42:05.524Z,2.90
2022-10-23T19:44:35.664Z,2.65
2022-10-23T19:47:04.725Z,2.70
2022-10-23T19:49:33.557Z,2.88
2022-10-23T19:52:02.276Z,2.50
2022-10-23T19:54:30.835Z,2.53
2022-10-23T19:56:59.736Z,3.35
2022-10-23T19:59:28.695Z,2.90
2022-10-23T20:01:58.995Z,2.58
2022-10-23T20:04:29.012Z,2.95
2022-10-23T20:06:57.969Z,3.00
2022-10-23T20:09:26.717Z,3.05
2022-10-23T20:11:55.898Z,2.83
2022-10-23T20:14:24.657Z,2.78
2022-10-23T20:16:55.867Z,2.63
2022-10-23T20:19:26.270Z,2.92
2022-10-23T20:21:54.852Z,2.85
2022-10-23T20:24:23.504Z,3.50
2022-10-23T20:26:54.799Z,3.05
2022-10-23T20:29:24.829Z,2.40
2022-10-23T20:31:53.587Z,2.58
2022-10-23T20:34:25.014Z,2.57
2022-10-23T20:36:55.360Z,3.17
2022-10-23T20:39:26.643Z,2.80
2022-10-23T20:41:56.483Z,3.17
2022-10-23T20:44:26.372Z,3.38
2022-10-23T20:46:55.439Z,2.95
2022-10-23T20:49:24.777Z,3.47
2022-10-23T20:51:56.459Z,3.30
2022-10-23T20:54:27.716Z,2.95
2022-10-23T20:56:58.942Z,3.20
2022-10-23T20:59:27.692Z,2.70
2022-10-23T21:01:57.394Z,3.03
2022-10-23T21:04:28.046Z,3.25
2022-10-23T21:07:16.428Z,3.00
2022-10-23T21:09:45.350Z,3.20
2022-10-23T21:12:14.550Z,2.75
2022-10-23T21:14:43.340Z,2.72
2022-10-23T21:17:16.815Z,2.90
2022-10-23T21:19:45.588Z,3.13
2022-10-23T21:22:15.557Z,2.93
2022-10-23T21:24:44.257Z,2.72
2022-10-23T21:27:12.859Z,2.93
2022-10-23T21:29:41.546Z,2.97
2022-10-23T21:32:10.155Z,2.88
2022-10-23T21:34:38.846Z,2.80
2022-10-23T21:37:15.075Z,3.23
2022-10-23T21:39:46.080Z,3.10
2022-10-23T21:42:15.412Z,3.20
2022-10-23T21:44:44.240Z,3.70
2022-10-23T21:47:13.354Z,3.15
2022-10-23T21:49:41.949Z,3.85
2022-10-23T21:52:10.654Z,3.92
2022-10-23T21:54:39.606Z,3.30
2022-10-23T21:57:15.558Z,4.05
2022-10-23T21:59:44.520Z,3.80
2022-10-23T22:02:14.470Z,3.95
2022-10-23T22:04:43.468Z,3.63
2022-10-23T22:07:15.027Z,4.00
2022-10-23T22:09:46.697Z,3.80
2022-10-23T22:12:16.729Z,3.38
2022-10-23T22:14:45.389Z,3.60
2022-10-23T22:17:13.979Z,3.65
2022-10-23T22:19:43.047Z,3.53
2022-10-23T22:22:11.736Z,3.63
2022-10-23T22:24:40.385Z,3.60
2022-10-23T22:27:09.063Z,3.50
2022-10-23T22:29:39.184Z,3.65
2022-10-23T22:32:07.972Z,4.10
2022-10-23T22:34:53.318Z,3.92
2022-10-23T22:37:22.413Z,3.97
2022-10-23T22:39:52.739Z,3.60
2022-10-23T22:42:21.508Z,4.70
2022-10-23T22:44:51.521Z,4.40
2022-10-23T22:47:20.129Z,4.05
2022-10-23T22:49:48.891Z,3.60
2022-10-23T22:52:17.497Z,4.53
2022-10-23T22:54:46.091Z,4.38
2022-10-23T22:57:14.708Z,3.63
2022-10-23T22:59:43.362Z,4.07
2022-10-23T23:02:13.350Z,4.03
2022-10-23T23:04:42.005Z,4.07
2022-10-23T23:07:12.795Z,3.95
2022-10-23T23:09:43.350Z,3.83
2022-10-23T23:12:13.743Z,4.07
2022-10-23T23:14:42.976Z,3.70
2022-10-23T23:17:13.566Z,4.10
2022-10-23T23:19:42.201Z,4.22
2022-10-23T23:22:11.232Z,3.83
2022-10-23T23:24:39.783Z,4.00
2022-10-23T23:27:08.376Z,3.25
2022-10-23T23:29:37.057Z,3.90
2022-10-23T23:32:06.368Z,4.05
2022-10-23T23:34:36.474Z,3.58
2022-10-23T23:37:05.167Z,4.03
2022-10-23T23:39:33.751Z,3.70
2022-10-23T23:42:02.393Z,3.30
2022-10-23T23:44:30.950Z,4.10
2022-10-23T23:46:59.725Z,3.67
2022-10-23T23:49:29.680Z,3.92
2022-10-23T23:51:59.696Z,3.97
2022-10-23T23:54:29.462Z,3.70
2022-10-23T23:56:59.978Z,4.35
2022-10-23T23:59:28.719Z,3.78
